METAR AND TAF INFORMATION


GMMN 180530Z 19008KT 6000 SCT016 SCT200 12/12 Q1016 NOSIG
GMMN 180500Z 19009KT 6000 SCT016 SCT200 12/12 Q1017 NOSIG
TAF GMMN 172300Z 1800/1906 20006KT 8000 SCT016 SCT030 BECMG 1810/1812 23013KT PROB30 TEMPO 1817/1900 5000 RA BKN016 BECMG 1900/1902 30004KT

 AIRPORT MAP

 RUNWAY INFORMATION
Runway 17L Runway length 12205 ft Runway width 148 ft
Runway elevation 633 ft Runway displaced threshold 0 ft Runway heading 164
Runway 35R Runway length 12205 ft Runway width 148 ft
Runway elevation 656 ft Runway displaced threshold 0 ft Runway heading 344
Runway 17R Runway length 12205 ft Runway width 148 ft
Runway elevation 636 ft Runway displaced threshold 0 ft Runway heading 164
Runway 35L Runway length 12205 ft Runway width 148 ft
Runway elevation 656 ft Runway displaced threshold 0 ft Runway heading 344

 AIRPORT FREQUENCIES
Type APP Name APP Frequency 121.3 MHZ
Type ATIS Name ATIS Frequency 126.4 MHZ
Type TWR Name TWR Frequency 118.5 MHZ

 AIRPORT NEAR NAVIGATION AIDS
Type VOR-DME Name Casablanca Frequency 114000 KHZ